Selah, Washington
Current Conditions -  °F | °C
As of 3:56 AM on Thursday 23 Oct 2014 (Local Time) from K1YT Reporting Station
Broken Clouds Broken Clouds  
Wind Chill: 52°   Ceiling: 11000
Heat Index: 52°   Visibility: 10mi
Dew Point: 42°   Wind: 2mph
Humidity: 68%   Direction: NA
Pressure: 29.76"   Gusts: NA
Location:  46.65°N, 120.53°W
Report Text: K1YT 231056Z AUTO VRB02KT 10SM BKN110 11/06 A2976 RMK AO2 LTG DSNT W SLPNO T01120055
Loading
Personal Weather Stations






























Interactive Weather Map
Tropical Storm Tracking
New forecast layout! Learn more

10-Day Weather Forecast

Advertisements
Track Severe Weather on mobile